createdAt,value
2022-10-17T00:00:47.021Z,32.00
2022-10-17T00:03:36.560Z,31.00
2022-10-17T00:06:10.657Z,30.50
2022-10-17T00:08:43.526Z,29.10
2022-10-17T00:11:19.592Z,30.50
2022-10-17T00:13:56.929Z,30.40
2022-10-17T00:16:30.280Z,30.50
2022-10-17T00:19:02.683Z,28.70
2022-10-17T00:21:34.880Z,28.40
2022-10-17T00:24:07.960Z,30.40
2022-10-17T00:26:39.551Z,29.00
2022-10-17T00:29:11.312Z,28.00
2022-10-17T00:31:43.012Z,27.40
2022-10-17T00:34:16.292Z,26.10
2022-10-17T00:36:47.797Z,26.70
2022-10-17T00:39:20.180Z,27.10
2022-10-17T00:41:51.859Z,28.20
2022-10-17T00:44:59.919Z,27.60
2022-10-17T00:47:32.123Z,28.80
2022-10-17T00:50:05.409Z,29.00
2022-10-17T00:52:43.344Z,28.60
2022-10-17T00:55:19.927Z,28.60
2022-10-17T00:57:52.643Z,28.50
2022-10-17T01:00:28.229Z,29.80
2022-10-17T01:02:59.752Z,28.90
2022-10-17T01:05:31.879Z,28.70
2022-10-17T01:08:04.180Z,28.50
2022-10-17T01:10:44.955Z,31.40
2022-10-17T01:13:23.157Z,55.60
2022-10-17T01:16:07.775Z,45.50
2022-10-17T01:18:57.475Z,71.00
2022-10-17T01:21:45.758Z,51.20
2022-10-17T01:24:37.017Z,42.70
2022-10-17T01:27:30.620Z,38.10
2022-10-17T01:30:22.882Z,33.70
2022-10-17T01:33:01.964Z,29.10
2022-10-17T01:35:39.550Z,29.00
2022-10-17T01:38:15.966Z,26.20
2022-10-17T01:40:54.844Z,27.00
2022-10-17T01:43:33.946Z,26.30
2022-10-17T01:46:12.958Z,25.10
2022-10-17T01:48:47.099Z,24.10
2022-10-17T01:51:22.594Z,25.60
2022-10-17T01:54:00.674Z,24.10
2022-10-17T01:56:35.479Z,23.80
2022-10-17T01:59:12.097Z,26.40
2022-10-17T02:01:45.457Z,27.40
2022-10-17T02:04:18.782Z,25.70
2022-10-17T02:06:50.344Z,25.30
2022-10-17T02:09:25.454Z,26.20
2022-10-17T02:12:13.378Z,25.70
2022-10-17T02:15:00.277Z,22.40
2022-10-17T02:17:44.629Z,23.00
2022-10-17T02:20:27.610Z,22.30
2022-10-17T02:23:07.269Z,21.60
2022-10-17T02:25:46.400Z,20.50
2022-10-17T02:28:25.643Z,21.10
2022-10-17T02:31:07.669Z,21.00
2022-10-17T02:33:46.415Z,21.00
2022-10-17T02:36:29.452Z,19.00
2022-10-17T02:39:02.728Z,18.40
2022-10-17T02:41:37.221Z,17.30
2022-10-17T02:44:09.859Z,19.80
2022-10-17T02:46:46.495Z,17.90
2022-10-17T02:49:20.758Z,18.60
2022-10-17T02:51:59.851Z,17.90
2022-10-17T02:54:39.916Z,18.10
2022-10-17T02:57:16.330Z,17.60
2022-10-17T02:59:48.758Z,18.00
2022-10-17T03:02:23.142Z,18.30
2022-10-17T03:04:54.703Z,18.50
2022-10-17T03:07:26.273Z,18.90
2022-10-17T03:09:57.805Z,18.50
2022-10-17T03:12:31.252Z,18.20
2022-10-17T03:15:03.242Z,18.00
2022-10-17T03:17:35.006Z,18.20
2022-10-17T03:20:12.284Z,17.60
2022-10-17T03:22:45.492Z,18.30
2022-10-17T03:25:23.408Z,17.50
2022-10-17T03:27:55.156Z,18.60
2022-10-17T03:30:26.669Z,20.70
2022-10-17T03:33:00.843Z,19.50
2022-10-17T03:35:32.477Z,19.20
2022-10-17T03:38:04.130Z,20.00
2022-10-17T03:40:35.678Z,19.70
2022-10-17T03:43:08.128Z,20.20
2022-10-17T03:45:39.642Z,19.30
2022-10-17T03:48:11.296Z,18.90
2022-10-17T03:50:42.997Z,19.40
2022-10-17T03:53:15.320Z,19.80
2022-10-17T03:55:46.953Z,19.50
2022-10-17T03:58:18.533Z,19.30
2022-10-17T04:00:50.129Z,21.50
2022-10-17T04:03:23.313Z,20.00
2022-10-17T04:05:54.862Z,19.80
2022-10-17T04:08:26.706Z,20.50
2022-10-17T04:11:02.216Z,19.20
2022-10-17T04:13:34.407Z,19.40
2022-10-17T04:16:07.989Z,19.20
2022-10-17T04:18:39.551Z,19.80
2022-10-17T04:21:12.397Z,19.10
2022-10-17T04:23:44.731Z,20.60
2022-10-17T04:26:16.403Z,20.50
2022-10-17T04:28:48.064Z,19.80
2022-10-17T04:31:20.003Z,20.30
2022-10-17T04:33:53.116Z,21.60
2022-10-17T04:36:24.792Z,22.00
2022-10-17T04:38:56.403Z,21.30
2022-10-17T04:41:28.003Z,25.30
2022-10-17T04:43:59.665Z,26.10
2022-10-17T04:46:31.342Z,28.20
2022-10-17T04:49:02.940Z,25.70
2022-10-17T04:51:34.539Z,24.00
2022-10-17T04:54:06.982Z,24.70
2022-10-17T04:56:38.735Z,26.00
2022-10-17T04:59:11.125Z,26.40
2022-10-17T05:01:42.944Z,22.30
2022-10-17T05:04:15.291Z,22.90
2022-10-17T05:06:46.763Z,23.40
2022-10-17T05:09:18.357Z,24.60
2022-10-17T05:11:50.054Z,24.90
2022-10-17T05:14:22.515Z,27.20
2022-10-17T05:16:54.027Z,27.70
2022-10-17T05:19:25.935Z,28.40
2022-10-17T05:21:58.453Z,31.00
2022-10-17T05:24:30.889Z,31.10
2022-10-17T05:27:02.892Z,33.50
2022-10-17T05:29:35.304Z,33.00
2022-10-17T05:32:07.775Z,34.60
2022-10-17T05:34:40.198Z,34.90
2022-10-17T05:37:11.740Z,36.60
2022-10-17T05:39:45.070Z,34.60
2022-10-17T05:42:18.281Z,33.50
2022-10-17T05:44:50.001Z,38.10
2022-10-17T05:47:21.606Z,35.90
2022-10-17T05:49:53.303Z,35.10
2022-10-17T05:52:25.628Z,33.80
2022-10-17T05:54:57.331Z,34.90
2022-10-17T05:57:29.626Z,33.70
2022-10-17T06:00:05.052Z,31.90
2022-10-17T06:02:40.472Z,29.90
2022-10-17T06:05:32.201Z,29.80
2022-10-17T06:08:58.033Z,27.80
2022-10-17T06:11:46.493Z,25.40
2022-10-17T06:14:18.125Z,24.90
2022-10-17T06:16:49.780Z,27.80
2022-10-17T06:19:22.622Z,28.80
2022-10-17T06:21:55.651Z,32.30
2022-10-17T06:24:27.460Z,38.50
2022-10-17T06:26:59.895Z,40.70
2022-10-17T06:29:31.539Z,44.30
2022-10-17T06:32:04.026Z,36.80
2022-10-17T06:34:35.793Z,36.30
2022-10-17T06:37:08.277Z,36.10
2022-10-17T06:39:39.960Z,33.70
2022-10-17T06:42:13.382Z,28.80
2022-10-17T06:44:44.853Z,29.70
2022-10-17T06:47:19.242Z,27.50
2022-10-17T06:49:51.802Z,24.50
2022-10-17T06:52:23.533Z,24.00
2022-10-17T06:54:55.389Z,24.90
2022-10-17T06:57:27.492Z,23.30
2022-10-17T06:59:59.344Z,24.50
2022-10-17T07:02:31.282Z,23.10
2022-10-17T07:05:03.791Z,22.50
2022-10-17T07:07:38.855Z,22.20
2022-10-17T07:10:13.597Z,22.30
2022-10-17T07:12:46.668Z,21.50
2022-10-17T07:15:18.405Z,23.80
2022-10-17T07:17:52.308Z,23.70
2022-10-17T07:20:24.152Z,24.50
2022-10-17T07:22:55.886Z,22.70
2022-10-17T07:25:28.509Z,22.50
2022-10-17T07:28:00.215Z,21.90
2022-10-17T07:30:31.877Z,20.70
2022-10-17T07:33:03.593Z,19.20
2022-10-17T07:35:35.225Z,20.10
2022-10-17T07:38:06.851Z,19.60
2022-10-17T07:40:38.712Z,21.70
2022-10-17T07:43:11.224Z,19.40
2022-10-17T07:45:43.559Z,17.90
2022-10-17T07:48:15.180Z,19.30
2022-10-17T07:50:47.080Z,18.80
2022-10-17T07:53:19.406Z,17.70
2022-10-17T07:55:51.487Z,17.40
2022-10-17T07:58:23.068Z,16.60
2022-10-17T08:00:54.726Z,18.00
2022-10-17T08:03:26.523Z,18.20
2022-10-17T08:06:04.093Z,18.70
2022-10-17T08:08:36.406Z,18.20
2022-10-17T08:11:10.317Z,17.50
2022-10-17T08:13:42.793Z,18.70
2022-10-17T08:16:15.029Z,18.20
2022-10-17T08:18:46.640Z,18.10
2022-10-17T08:21:18.176Z,18.30
2022-10-17T08:23:50.651Z,19.20
2022-10-17T08:26:23.006Z,17.20
2022-10-17T08:28:54.781Z,19.20
2022-10-17T08:31:27.364Z,17.80
2022-10-17T08:34:00.638Z,18.00
2022-10-17T08:36:32.150Z,18.50
2022-10-17T08:39:03.893Z,16.90
2022-10-17T08:42:00.684Z,16.30
2022-10-17T08:44:47.741Z,17.10
2022-10-17T08:47:28.040Z,17.40
2022-10-17T08:50:03.272Z,16.30
2022-10-17T08:52:41.352Z,16.10
2022-10-17T08:55:20.947Z,15.50
2022-10-17T08:57:52.611Z,14.80
2022-10-17T09:00:29.324Z,15.10
2022-10-17T09:03:17.074Z,15.00
2022-10-17T09:05:55.367Z,13.60
2022-10-17T09:08:44.151Z,13.80
2022-10-17T09:11:28.552Z,14.00
2022-10-17T09:14:14.155Z,13.90
2022-10-17T09:17:02.442Z,14.10
2022-10-17T09:19:37.527Z,14.70
2022-10-17T09:22:16.086Z,15.60
2022-10-17T09:24:50.907Z,15.30
2022-10-17T09:27:26.487Z,14.90
2022-10-17T09:30:26.859Z,15.20
2022-10-17T09:32:58.800Z,15.90
2022-10-17T09:35:31.384Z,16.00
2022-10-17T09:38:03.203Z,14.60
2022-10-17T09:40:37.779Z,15.50
2022-10-17T09:43:12.598Z,15.20
2022-10-17T09:45:57.135Z,15.30
2022-10-17T09:48:33.865Z,15.40
2022-10-17T09:51:15.107Z,15.40
2022-10-17T09:54:03.831Z,15.00
2022-10-17T09:57:02.460Z,14.50
2022-10-17T09:59:36.608Z,14.30
2022-10-17T10:02:21.000Z,13.70
2022-10-17T10:05:06.467Z,14.30
2022-10-17T10:07:40.412Z,12.70
2022-10-17T10:10:30.250Z,12.60
2022-10-17T10:13:17.418Z,13.50
2022-10-17T10:15:50.827Z,12.80
2022-10-17T10:18:37.154Z,13.30
2022-10-17T10:21:12.974Z,13.00
2022-10-17T10:23:46.750Z,12.30
2022-10-17T10:26:24.818Z,12.90
2022-10-17T10:29:00.099Z,12.20
2022-10-17T10:31:39.006Z,13.20
2022-10-17T10:34:35.813Z,11.90
2022-10-17T10:37:18.698Z,11.90
2022-10-17T10:39:52.909Z,12.90
2022-10-17T10:42:30.238Z,11.70
2022-10-17T10:45:23.693Z,11.40
2022-10-17T10:48:04.125Z,12.60
2022-10-17T10:50:44.392Z,12.40
2022-10-17T10:53:34.768Z,11.30
2022-10-17T10:56:13.527Z,10.80
2022-10-17T10:58:55.218Z,10.20
2022-10-17T11:01:36.343Z,9.90
2022-10-17T11:04:22.128Z,10.80
2022-10-17T11:07:00.211Z,10.90
2022-10-17T11:09:43.830Z,9.70
2022-10-17T11:12:20.024Z,9.90
2022-10-17T11:14:58.835Z,9.20
2022-10-17T11:17:38.086Z,9.40
2022-10-17T11:20:26.105Z,9.60
2022-10-17T11:23:24.874Z,9.50
2022-10-17T11:26:05.178Z,9.10
2022-10-17T11:28:36.980Z,8.60
2022-10-17T11:31:14.682Z,9.30
2022-10-17T11:33:50.084Z,8.60
2022-10-17T11:36:27.296Z,8.50
2022-10-17T11:39:02.713Z,8.00
2022-10-17T11:41:40.604Z,7.70
2022-10-17T11:44:20.917Z,8.20
2022-10-17T11:46:55.820Z,7.60
2022-10-17T11:49:34.212Z,7.40
2022-10-17T11:52:43.887Z,8.00
2022-10-17T11:55:18.847Z,7.30
2022-10-17T11:58:02.939Z,7.00
2022-10-17T12:01:02.567Z,7.20
2022-10-17T12:03:49.495Z,7.30
2022-10-17T12:06:32.638Z,6.80
2022-10-17T12:09:11.320Z,7.40
2022-10-17T12:11:55.964Z,7.00
2022-10-17T12:14:48.490Z,6.50
2022-10-17T12:17:38.918Z,6.80
2022-10-17T12:23:24.771Z,6.90
2022-10-17T12:26:01.502Z,6.80
2022-10-17T12:28:47.782Z,6.10
2022-10-17T12:31:34.139Z,6.60
2022-10-17T12:34:06.897Z,6.60
2022-10-17T12:36:42.357Z,6.60
2022-10-17T12:39:46.792Z,6.60
2022-10-17T12:42:46.694Z,6.70
2022-10-17T12:45:53.033Z,6.60
2022-10-17T12:49:04.744Z,6.50
2022-10-17T12:52:06.008Z,6.70
2022-10-17T12:54:53.540Z,7.00
2022-10-17T12:57:38.691Z,6.80
2022-10-17T13:00:29.439Z,6.40
2022-10-17T13:03:07.880Z,6.70
2022-10-17T13:05:42.321Z,7.30
2022-10-17T13:08:20.461Z,7.40
2022-10-17T13:10:55.183Z,6.90
2022-10-17T13:13:36.831Z,7.30
2022-10-17T13:16:28.363Z,7.40
2022-10-17T13:19:00.401Z,7.20
2022-10-17T13:21:33.195Z,7.20
2022-10-17T13:24:22.816Z,7.80
2022-10-17T13:26:54.362Z,7.80
2022-10-17T13:29:28.603Z,7.40
2022-10-17T13:32:04.011Z,7.60
2022-10-17T13:34:36.859Z,7.30
2022-10-17T13:37:12.369Z,7.60
2022-10-17T13:39:55.312Z,7.00
2022-10-17T13:42:30.486Z,7.20
2022-10-17T13:45:02.673Z,7.40
2022-10-17T13:47:40.396Z,7.30
2022-10-17T13:50:43.483Z,7.80
2022-10-17T13:53:26.541Z,7.80
2022-10-17T13:56:22.880Z,7.60
2022-10-17T13:58:53.662Z,7.80
2022-10-17T14:01:27.992Z,6.80
2022-10-17T14:04:09.023Z,7.10
2022-10-17T14:06:47.871Z,7.00
2022-10-17T14:09:26.274Z,7.60
2022-10-17T14:12:04.802Z,7.20
2022-10-17T14:14:58.034Z,7.50
2022-10-17T14:17:31.180Z,7.40
2022-10-17T14:20:34.113Z,7.70
2022-10-17T14:23:21.965Z,7.70
2022-10-17T14:25:49.055Z,8.00
2022-10-17T14:28:23.583Z,8.60
2022-10-17T14:31:10.673Z,9.00
2022-10-17T14:33:50.599Z,10.60
2022-10-17T14:36:34.338Z,9.90
2022-10-17T14:39:14.089Z,11.20
2022-10-17T14:41:47.234Z,11.20
2022-10-17T14:44:26.422Z,11.20
2022-10-17T14:47:18.267Z,10.70
2022-10-17T14:50:03.503Z,10.60
2022-10-17T14:52:40.949Z,11.30
2022-10-17T14:55:27.450Z,11.10
2022-10-17T14:57:59.076Z,12.40
2022-10-17T15:00:30.957Z,12.40
2022-10-17T15:03:02.584Z,12.10
2022-10-17T15:05:35.695Z,12.40
2022-10-17T15:08:12.251Z,13.20
2022-10-17T15:10:44.694Z,13.50
2022-10-17T15:13:27.640Z,13.70
2022-10-17T15:16:00.533Z,13.70
2022-10-17T15:18:32.626Z,14.60
2022-10-17T15:21:05.359Z,13.30
2022-10-17T15:23:38.239Z,13.40
2022-10-17T15:26:16.433Z,13.80
2022-10-17T15:28:49.582Z,15.40
2022-10-17T15:31:23.168Z,14.60
2022-10-17T15:33:55.086Z,16.00
2022-10-17T15:36:30.308Z,15.90
2022-10-17T15:39:02.940Z,16.00
2022-10-17T15:41:35.020Z,15.60
2022-10-17T15:44:07.127Z,18.30
2022-10-17T15:46:42.799Z,19.50
2022-10-17T15:49:17.356Z,19.80
2022-10-17T15:51:54.374Z,19.60
2022-10-17T15:54:27.135Z,20.10
2022-10-17T15:56:58.831Z,21.10
2022-10-17T15:59:34.752Z,20.60
2022-10-17T16:02:12.633Z,20.50
2022-10-17T16:04:44.935Z,22.00
2022-10-17T16:07:16.974Z,21.80
2022-10-17T16:09:48.852Z,21.10
2022-10-17T16:12:28.129Z,21.60
2022-10-17T16:14:59.855Z,21.20
2022-10-17T16:17:31.822Z,21.30
2022-10-17T16:20:03.529Z,23.80
2022-10-17T16:22:37.025Z,23.70
2022-10-17T16:25:19.607Z,24.70
2022-10-17T16:27:52.709Z,26.00
2022-10-17T16:30:32.830Z,26.00
2022-10-17T16:33:06.230Z,28.10
2022-10-17T16:35:37.942Z,28.50
2022-10-17T16:38:10.113Z,29.20
2022-10-17T16:40:49.947Z,32.00
2022-10-17T16:43:21.535Z,29.70
2022-10-17T16:45:53.197Z,29.10
2022-10-17T16:48:29.517Z,28.60
2022-10-17T16:51:10.403Z,28.70
2022-10-17T16:53:43.942Z,31.60
2022-10-17T16:56:18.073Z,30.60
2022-10-17T16:58:50.470Z,33.00
2022-10-17T17:01:24.524Z,32.30
2022-10-17T17:03:56.276Z,35.90
2022-10-17T17:06:29.770Z,35.30
2022-10-17T17:09:01.320Z,35.10
2022-10-17T17:11:38.060Z,36.70
2022-10-17T17:14:10.431Z,43.50
2022-10-17T17:16:43.434Z,51.20
2022-10-17T17:19:17.573Z,52.20
2022-10-17T17:21:51.012Z,50.50
2022-10-17T17:24:24.003Z,44.20
2022-10-17T17:26:57.047Z,43.10
2022-10-17T17:29:28.638Z,44.60
2022-10-17T17:32:00.192Z,46.10
2022-10-17T17:34:32.501Z,46.70
2022-10-17T17:37:04.258Z,43.00
2022-10-17T17:39:36.006Z,43.10
2022-10-17T17:42:07.588Z,44.50
2022-10-17T17:44:39.155Z,43.10
2022-10-17T17:47:10.809Z,39.90
2022-10-17T17:49:42.383Z,41.80
2022-10-17T17:52:14.004Z,41.80
2022-10-17T17:54:46.808Z,41.10
2022-10-17T17:57:18.427Z,40.60
2022-10-17T17:59:50.220Z,38.20
2022-10-17T18:02:21.768Z,37.20
2022-10-17T18:04:54.374Z,35.30
2022-10-17T18:07:26.375Z,35.50
2022-10-17T18:09:58.158Z,36.00
2022-10-17T18:12:31.297Z,34.20
2022-10-17T18:15:03.965Z,33.60
2022-10-17T18:17:35.833Z,34.60
2022-10-17T18:20:11.773Z,35.70
2022-10-17T18:22:43.372Z,36.90
2022-10-17T18:25:15.328Z,36.60
2022-10-17T18:27:48.520Z,33.10
2022-10-17T18:30:25.486Z,33.00
2022-10-17T18:32:58.949Z,32.10
2022-10-17T18:35:30.549Z,35.10
2022-10-17T18:38:02.164Z,36.40
2022-10-17T18:40:33.759Z,34.60
2022-10-17T18:43:06.311Z,34.70
2022-10-17T18:45:38.701Z,33.90
2022-10-17T18:48:10.789Z,34.60
2022-10-17T18:50:42.595Z,33.40
2022-10-17T18:53:14.150Z,33.30
2022-10-17T18:58:23.488Z,35.70
2022-10-17T19:00:55.079Z,35.30
2022-10-17T19:03:26.608Z,31.80
2022-10-17T19:06:01.204Z,33.50
2022-10-17T19:08:32.934Z,32.40
2022-10-17T19:11:09.911Z,32.70
2022-10-17T19:13:42.609Z,31.40
2022-10-17T19:16:16.593Z,32.90
2022-10-17T19:18:52.294Z,32.00
2022-10-17T19:21:24.227Z,31.00
2022-10-17T19:23:57.444Z,33.00
2022-10-17T19:26:32.346Z,31.70
2022-10-17T19:29:04.571Z,33.40
2022-10-17T19:31:37.194Z,33.50
2022-10-17T19:34:08.735Z,34.20
2022-10-17T19:36:40.927Z,32.30
2022-10-17T19:39:15.104Z,32.70
2022-10-17T19:41:48.707Z,32.60
2022-10-17T19:44:20.493Z,31.70
2022-10-17T19:46:52.105Z,32.70
2022-10-17T19:49:23.629Z,31.60
2022-10-17T19:51:55.200Z,31.40
2022-10-17T19:54:26.741Z,30.50
2022-10-17T19:56:58.475Z,30.40
2022-10-17T19:59:30.077Z,31.30
2022-10-17T20:02:01.832Z,32.70
2022-10-17T20:04:33.500Z,31.60
2022-10-17T20:07:05.063Z,31.70
2022-10-17T20:09:36.790Z,31.70
2022-10-17T20:12:08.978Z,32.20
2022-10-17T20:14:41.201Z,30.40
2022-10-17T20:17:12.858Z,29.10
2022-10-17T20:19:44.726Z,30.50
2022-10-17T20:22:16.445Z,28.70
2022-10-17T20:24:48.210Z,29.20
2022-10-17T20:27:22.165Z,32.20
2022-10-17T20:29:55.946Z,31.30
2022-10-17T20:32:27.705Z,32.90
2022-10-17T20:34:59.622Z,31.90
2022-10-17T20:37:36.392Z,34.70
2022-10-17T20:40:34.700Z,32.10
2022-10-17T20:43:09.395Z,31.50
2022-10-17T20:45:50.782Z,32.00
2022-10-17T20:48:23.577Z,34.80
2022-10-17T20:50:55.995Z,33.30
2022-10-17T20:53:42.804Z,33.00
2022-10-17T20:56:22.142Z,34.30
2022-10-17T20:58:55.723Z,35.30
2022-10-17T21:01:29.768Z,33.00
2022-10-17T21:04:21.296Z,33.90
2022-10-17T21:06:53.670Z,34.10
2022-10-17T21:09:25.277Z,34.10
2022-10-17T21:11:57.944Z,34.00
2022-10-17T21:14:29.558Z,39.50
2022-10-17T21:17:04.932Z,36.40
2022-10-17T21:19:36.981Z,33.10
2022-10-17T21:22:09.357Z,33.90
2022-10-17T21:24:41.179Z,34.20
2022-10-17T21:27:17.671Z,33.20
2022-10-17T21:29:50.096Z,34.30
2022-10-17T21:32:47.298Z,34.10
2022-10-17T21:35:14.051Z,34.20
2022-10-17T21:37:45.878Z,33.30
2022-10-17T21:40:17.414Z,33.70
2022-10-17T21:42:49.879Z,34.40
2022-10-17T21:45:25.856Z,33.30
2022-10-17T21:48:13.598Z,33.40
2022-10-17T21:50:45.375Z,33.40
2022-10-17T21:53:17.755Z,34.90
2022-10-17T21:55:49.336Z,33.80
2022-10-17T21:58:21.224Z,34.10
2022-10-17T22:00:52.783Z,35.30
2022-10-17T22:03:26.898Z,33.70
2022-10-17T22:06:07.057Z,35.20
2022-10-17T22:08:51.113Z,33.60
2022-10-17T22:11:24.862Z,34.40
2022-10-17T22:13:59.637Z,33.90
2022-10-17T22:16:31.357Z,34.10
2022-10-17T22:19:06.421Z,32.20
2022-10-17T22:21:38.970Z,32.40
2022-10-17T22:24:14.139Z,33.60
2022-10-17T22:26:47.451Z,33.00
2022-10-17T22:29:19.858Z,33.20
2022-10-17T22:31:51.403Z,32.70
2022-10-17T22:34:24.535Z,33.00
2022-10-17T22:36:56.108Z,30.80
2022-10-17T22:39:27.729Z,33.70
2022-10-17T22:41:59.287Z,33.60
2022-10-17T22:44:31.706Z,33.80
2022-10-17T22:47:03.243Z,33.30
2022-10-17T22:49:35.731Z,32.20
2022-10-17T22:52:07.597Z,31.60
2022-10-17T22:54:40.007Z,33.20
2022-10-17T22:57:11.547Z,31.40
2022-10-17T22:59:43.162Z,32.70
2022-10-17T23:02:14.857Z,31.00
2022-10-17T23:04:48.367Z,32.20
2022-10-17T23:07:19.889Z,31.70
2022-10-17T23:09:51.601Z,31.40
2022-10-17T23:12:23.453Z,29.10
2022-10-17T23:14:56.669Z,28.30
2022-10-17T23:17:28.185Z,28.80
2022-10-17T23:19:59.823Z,28.70
2022-10-17T23:22:31.505Z,28.10
2022-10-17T23:25:05.081Z,29.00
2022-10-17T23:27:38.114Z,29.20
2022-10-17T23:30:21.561Z,28.60
2022-10-17T23:32:54.281Z,28.30
2022-10-17T23:35:25.926Z,29.00
2022-10-17T23:37:57.555Z,29.20
2022-10-17T23:42:21.285Z,30.50
2022-10-17T23:44:53.302Z,28.50
2022-10-17T23:47:24.970Z,29.30
2022-10-17T23:49:56.512Z,27.60
2022-10-17T23:52:30.884Z,27.80
2022-10-17T23:55:02.492Z,29.20
2022-10-17T23:57:34.491Z,27.90
